Nearby METAR Reports

 

KISP - Islip, New York, USA
Distance from station: SW 4mi, 6km
Updated: Mon, 06/24/2019 2:56 pm EDT
Clear
Clear
 Wind from S
Wind: S 8 mph , 13 km/h
Temperature: 81°F , 27°C
Heat Index: 81°F , 27°C
Dew Point: 55°F , 13°C
Humidity: 42%
Barometer: 29.86 inHg , 1011.2 hPa
Clouds: Clear
Visibility: 10 miles , 16 km
2019/06/24 18:56 KISP 241856Z AUTO 18007KT 10SM CLR 27/13 A2986 RMK AO2 SLP111 T02720128
KHWV - Shirley, New York, USA
Distance from station: E 10mi, 16km
Updated: Mon, 06/24/2019 2:56 pm EDT
Clear
Clear
 Wind from SSW
Wind: SSW 10 mph , 17 km/h
Temperature: 81°F , 27°C
Dew Point: 48°F , 9°C
Humidity: 32%
Barometer: 29.87 inHg , 1011.5 hPa
Clouds: Clear
Visibility: 10 miles , 16 km
2019/06/24 18:56 KHWV 241856Z AUTO 20009KT 10SM CLR 27/09 A2987 RMK AO2 SLP115 T02720094
 
KFRG - Farmingdale, New York, USA
Distance from station: WSW 20mi, 33km
Updated: Mon, 06/24/2019 2:53 pm EDT
Clear
Clear
 Wind from SSW
Wind: SSW 10 mph , 17 km/h
Temperature: 79°F , 26°C
Dew Point: 57°F , 14°C
Humidity: 48%
Barometer: 29.87 inHg , 1011.5 hPa
Clouds: Clear
Visibility: 10 miles , 16 km
2019/06/24 18:53 KFRG 241853Z 20009KT 10SM CLR 26/14 A2987 RMK AO2 SLP113 T02610139
KBDR - Bridgeport, Connecticut, USA
Distance from station: N 23mi, 37km
Updated: Mon, 06/24/2019 2:52 pm EDT
Clear
Clear
 Wind from SSW
Wind: SSW 9 mph , 15 km/h
Temperature: 84°F , 29°C
Dew Point: 50°F , 10°C
Humidity: 31%
Barometer: 29.85 inHg , 1010.8 hPa
Clouds: Clear
Visibility: 10 miles , 16 km
2019/06/24 18:52 KBDR 241852Z 20008KT 10SM CLR 29/10 A2985 RMK AO2 SLP108 T02890100
 
KFOK - Westhampton Beac, New York, USA
Distance from station: E 23mi, 37km
Updated: Mon, 06/24/2019 2:53 pm EDT
Clear
Clear
 Wind from SW
Wind: SW 9 mph , 15 km/h
Temperature: 81°F , 27°C
Dew Point: 52°F , 11°C
Humidity: 37%
Barometer: 29.88 inHg , 1011.9 hPa
Clouds: Clear
Visibility: 10 miles , 16 km
2019/06/24 18:53 KFOK 241853Z 23008KT 10SM CLR 27/11 A2988 RMK AO2 SLP118 T02670106
KHVN - New Haven/Tweed, Connecticut, USA
Distance from station: NNE 31mi, 50km
Updated: Mon, 06/24/2019 2:53 pm EDT
Clear
Clear
 Wind from SSW
Wind: SSW 10 mph , 17 km/h
Temperature: 82°F , 28°C
Dew Point: 52°F , 11°C
Humidity: 35%
Barometer: 29.85 inHg , 1010.8 hPa
Clouds: Clear
Visibility: 10 miles , 16 km
2019/06/24 18:53 KHVN 241853Z 21009KT 10SM CLR 28/11 A2985 RMK AO2 SLP109 T02830106
 
KHPN - White Plains, New York, USA
Distance from station: WNW 37mi, 60km
Updated: Mon, 06/24/2019 2:56 pm EDT
Few Clouds
Few Clouds
 Wind from NW
Wind: NW 5 mph , 7 km/h
Temperature: 82°F , 28°C
Dew Point: 52°F , 11°C
Humidity: 35%
Barometer: 29.86 inHg , 1011.2 hPa
Clouds: Few Clouds
Visibility: 10 miles , 16 km
Cloud details: Few Clouds 6000 ft
2019/06/24 18:56 KHPN 241856Z 31004KT 10SM FEW060 28/11 A2986 RMK AO2 SLP107 T02780111
KJFK - Nyc/Jfk Arpt, New York, USA
Distance from station: WSW 40mi, 64km
Updated: Mon, 06/24/2019 2:51 pm EDT
Mostly cloudy
Mostly cloudy
 Wind from S
Wind: S 14 mph , 22 km/h
Temperature: 79°F , 26°C
Dew Point: 64°F , 18°C
Humidity: 61%
Barometer: 29.87 inHg , 1011.5 hPa
Clouds: Mostly cloudy
Visibility: 10 miles , 16 km
Cloud details: Few Clouds 6000 ft
Few Clouds 15000 ft
Mostly cloudy 22000 ft
2019/06/24 18:51 KJFK 241851Z 18012KT 10SM FEW060 FEW150 BKN220 26/18 A2987 RMK AO2 SLP116 T02560178 $
 
KDXR - Danbury, Connecticut, USA
Distance from station: NNW 42mi, 68km
Updated: Mon, 06/24/2019 2:53 pm EDT
Clear
Clear
 Wind from SSW
Wind: SSW 8 mph , 13 km/h
Temperature: 81°F , 27°C
Dew Point: 52°F , 11°C
Humidity: 37%
Barometer: 29.87 inHg , 1011.5 hPa
Clouds: Clear
Visibility: 10 miles , 16 km
2019/06/24 18:53 KDXR 241853Z 21007KT 10SM CLR 27/11 A2987 RMK AO2 SLP113 T02720111
KHTO - East Hampton, New York, USA
Distance from station: E 43mi, 69km
Updated: Mon, 06/24/2019 3:15 pm EDT
Clear
Clear
 Wind from SSW
Wind: SSW 8 mph , 13 km/h
Temperature: 81°F , 27°C
Dew Point: 54°F , 12°C
Humidity: 39%
Barometer: 29.86 inHg , 1011.2 hPa
Clouds: Clear
Visibility: 10 miles , 16 km
2019/06/24 19:15 KHTO 241915Z AUTO 21007KT 10SM CLR 27/12 A2986 RMK AO2 T02700121
 
KOXC - Oxford/Waterbury, Connecticut, USA
Distance from station: N 43mi, 70km
Updated: Mon, 06/24/2019 2:51 pm EDT
Clear
Clear
 Wind from varies
Wind: varies 6 mph , 9 km/h
Temperature: 82°F , 28°C
Dew Point: 54°F , 12°C
Humidity: 37%
Barometer: 29.88 inHg , 1011.9 hPa
Clouds: Clear
Visibility: 10 miles , 16 km
2019/06/24 18:51 KOXC 241851Z VRB05KT 10SM CLR 28/12 A2988 RMK AO2 SLP126 T02780117
KLGA - Nyc/La Guardia, New York, USA
Distance from station: W 44mi, 70km
Updated: Mon, 06/24/2019 2:51 pm EDT
Mostly cloudy
Mostly cloudy
 Wind from WSW
Wind: WSW 12 mph , 19 km/h, Gust: 17 mph , 28 km/h
Temperature: 86°F , 30°C
Dew Point: 50°F , 10°C
Humidity: 29%
Barometer: 29.84 inHg , 1010.5 hPa
Clouds: Mostly cloudy
Visibility: 10 miles , 16 km
Cloud details: Few Clouds 6000 ft
Partly cloudy 18000 ft
Mostly cloudy 22000 ft
2019/06/24 18:51 KLGA 241851Z 24010G15KT 10SM FEW060 SCT180 BKN220 30/10 A2984 RMK AO2 SLP105 T03000100
 
KSNC - Chester, Connecticut, USA
Distance from station: NE 47mi, 76km
Updated: Mon, 06/24/2019 3:15 pm EDT
Clear
Clear
 Wind from SW
Wind: SW 8 mph , 13 km/h, Gust: 15 mph , 24 km/h
Temperature: 84°F , 29°C
Dew Point: 52°F , 11°C
Humidity: 33%
Barometer: 29.86 inHg , 1011.2 hPa
Clouds: Clear
Visibility: 10 miles , 16 km
2019/06/24 19:15 KSNC 241915Z AUTO 22007G13KT 200V270 10SM CLR 29/11 A2986 RMK AO2
KMMK - Meriden, Connecticut, USA
Distance from station: NNE 48mi, 77km
Updated: Mon, 06/24/2019 2:53 pm EDT
Clear
Clear
 Wind from WSW
Wind: WSW 7 mph , 11 km/h
Temperature: 84°F , 29°C
Dew Point: 52°F , 11°C
Humidity: 33%
Barometer: 29.84 inHg , 1010.5 hPa
Clouds: Clear
Visibility: 10 miles , 16 km
2019/06/24 18:53 KMMK 241853Z AUTO 25006KT 10SM CLR 29/11 A2984 RMK AO2 SLP103 T02890111
 
KNYC - Nyc/Central Park, New York, USA
Distance from station: W 48mi, 77km
Updated: Mon, 06/24/2019 2:51 pm EDT
Clear
Clear
 Wind from calm
Wind: Calm
Temperature: 82°F , 28°C
Heat Index: 81°F , 27°C
Dew Point: 55°F , 13°C
Humidity: 40%
Barometer: 29.88 inHg , 1011.9 hPa
Clouds: Clear
Visibility: 10 miles , 16 km
2019/06/24 18:51 KNYC 241851Z AUTO 00000KT 10SM CLR 28/13 A2988 RMK AO2 SLP108 T02780128 $